sensor_id;sensor_type;location;lat;lon;timestamp;temperature;humidity
78345;DHT22;67620;51.134;6.548;2024-03-07T00:02:05;5.90;76.70
78345;DHT22;67620;51.134;6.548;2024-03-07T00:04:31;5.80;76.70
78345;DHT22;67620;51.134;6.548;2024-03-07T00:06:56;5.80;76.60
78345;DHT22;67620;51.134;6.548;2024-03-07T00:09:22;5.80;76.70
78345;DHT22;67620;51.134;6.548;2024-03-07T00:11:50;5.70;76.50
78345;DHT22;67620;51.134;6.548;2024-03-07T00:14:15;5.70;76.70
78345;DHT22;67620;51.134;6.548;2024-03-07T00:16:41;5.70;77.40
78345;DHT22;67620;51.134;6.548;2024-03-07T00:19:06;5.70;77.60
78345;DHT22;67620;51.134;6.548;2024-03-07T00:21:32;5.80;77.60
78345;DHT22;67620;51.134;6.548;2024-03-07T00:23:58;5.60;76.50
78345;DHT22;67620;51.134;6.548;2024-03-07T00:26:25;5.40;75.80
78345;DHT22;67620;51.134;6.548;2024-03-07T00:28:50;5.30;76.00
78345;DHT22;67620;51.134;6.548;2024-03-07T00:31:16;5.20;75.90
78345;DHT22;67620;51.134;6.548;2024-03-07T00:33:42;5.20;76.70
78345;DHT22;67620;51.134;6.548;2024-03-07T00:36:08;5.10;77.00
78345;DHT22;67620;51.134;6.548;2024-03-07T00:38:33;5.10;77.00
78345;DHT22;67620;51.134;6.548;2024-03-07T00:40:59;5.00;77.70
78345;DHT22;67620;51.134;6.548;2024-03-07T00:43:25;5.10;77.00
78345;DHT22;67620;51.134;6.548;2024-03-07T00:45:51;5.00;76.70
78345;DHT22;67620;51.134;6.548;2024-03-07T00:48:17;4.90;76.70
78345;DHT22;67620;51.134;6.548;2024-03-07T00:50:43;5.00;75.70
78345;DHT22;67620;51.134;6.548;2024-03-07T00:53:09;4.90;76.10
78345;DHT22;67620;51.134;6.548;2024-03-07T00:55:35;4.90;75.90
78345;DHT22;67620;51.134;6.548;2024-03-07T00:58:01;4.90;75.60
78345;DHT22;67620;51.134;6.548;2024-03-07T01:00:28;4.80;75.80
78345;DHT22;67620;51.134;6.548;2024-03-07T01:02:53;4.80;75.70
78345;DHT22;67620;51.134;6.548;2024-03-07T01:05:20;4.70;75.80
78345;DHT22;67620;51.134;6.548;2024-03-07T01:07:45;4.70;75.70
78345;DHT22;67620;51.134;6.548;2024-03-07T01:10:14;4.70;75.80
78345;DHT22;67620;51.134;6.548;2024-03-07T01:12:40;4.60;75.90
78345;DHT22;67620;51.134;6.548;2024-03-07T01:15:08;4.60;76.30
78345;DHT22;67620;51.134;6.548;2024-03-07T01:17:35;4.70;76.60
78345;DHT22;67620;51.134;6.548;2024-03-07T01:20:01;4.60;76.80
78345;DHT22;67620;51.134;6.548;2024-03-07T01:22:27;4.50;77.80
78345;DHT22;67620;51.134;6.548;2024-03-07T01:24:53;4.40;77.60
78345;DHT22;67620;51.134;6.548;2024-03-07T01:27:20;4.30;78.10
78345;DHT22;67620;51.134;6.548;2024-03-07T01:29:45;4.20;78.70
78345;DHT22;67620;51.134;6.548;2024-03-07T01:32:11;4.30;78.50
78345;DHT22;67620;51.134;6.548;2024-03-07T01:34:37;4.30;78.60
78345;DHT22;67620;51.134;6.548;2024-03-07T01:37:02;4.20;78.60
78345;DHT22;67620;51.134;6.548;2024-03-07T01:39:28;4.20;78.20
78345;DHT22;67620;51.134;6.548;2024-03-07T01:41:54;4.30;78.10
78345;DHT22;67620;51.134;6.548;2024-03-07T01:44:19;4.20;77.90
78345;DHT22;67620;51.134;6.548;2024-03-07T01:46:45;4.30;78.20
78345;DHT22;67620;51.134;6.548;2024-03-07T01:49:11;4.30;77.80
78345;DHT22;67620;51.134;6.548;2024-03-07T01:51:37;4.30;77.40
78345;DHT22;67620;51.134;6.548;2024-03-07T01:54:05;4.40;77.00
78345;DHT22;67620;51.134;6.548;2024-03-07T01:56:32;4.40;77.30
78345;DHT22;67620;51.134;6.548;2024-03-07T01:59:00;4.30;77.80
78345;DHT22;67620;51.134;6.548;2024-03-07T02:01:27;4.30;77.10
78345;DHT22;67620;51.134;6.548;2024-03-07T02:03:52;4.20;77.30
78345;DHT22;67620;51.134;6.548;2024-03-07T02:06:19;4.20;78.40
78345;DHT22;67620;51.134;6.548;2024-03-07T02:08:45;4.10;78.60
78345;DHT22;67620;51.134;6.548;2024-03-07T02:11:10;4.20;77.80
78345;DHT22;67620;51.134;6.548;2024-03-07T02:13:36;4.30;77.50
78345;DHT22;67620;51.134;6.548;2024-03-07T02:16:02;4.20;77.90
78345;DHT22;67620;51.134;6.548;2024-03-07T02:18:27;4.20;77.70
78345;DHT22;67620;51.134;6.548;2024-03-07T02:20:53;4.10;77.60
78345;DHT22;67620;51.134;6.548;2024-03-07T02:23:20;3.90;78.50
78345;DHT22;67620;51.134;6.548;2024-03-07T02:25:46;3.90;79.60
78345;DHT22;67620;51.134;6.548;2024-03-07T02:28:11;4.00;79.70
78345;DHT22;67620;51.134;6.548;2024-03-07T02:30:37;3.90;79.50
78345;DHT22;67620;51.134;6.548;2024-03-07T02:33:04;3.90;78.60
78345;DHT22;67620;51.134;6.548;2024-03-07T02:35:34;3.90;77.80
78345;DHT22;67620;51.134;6.548;2024-03-07T02:38:03;4.00;78.20
78345;DHT22;67620;51.134;6.548;2024-03-07T02:40:30;4.00;77.90
78345;DHT22;67620;51.134;6.548;2024-03-07T02:42:55;4.10;77.90
78345;DHT22;67620;51.134;6.548;2024-03-07T02:45:21;4.00;78.40
78345;DHT22;67620;51.134;6.548;2024-03-07T02:47:47;3.90;78.50
78345;DHT22;67620;51.134;6.548;2024-03-07T02:50:13;3.90;78.20
78345;DHT22;67620;51.134;6.548;2024-03-07T02:52:38;3.90;78.20
78345;DHT22;67620;51.134;6.548;2024-03-07T02:55:05;3.90;78.10
78345;DHT22;67620;51.134;6.548;2024-03-07T02:57:31;3.80;77.90
78345;DHT22;67620;51.134;6.548;2024-03-07T02:59:57;3.70;78.30
78345;DHT22;67620;51.134;6.548;2024-03-07T03:02:22;3.70;77.90
78345;DHT22;67620;51.134;6.548;2024-03-07T03:04:48;3.70;78.20
78345;DHT22;67620;51.134;6.548;2024-03-07T03:07:14;3.80;77.50
78345;DHT22;67620;51.134;6.548;2024-03-07T03:09:39;3.70;77.20
78345;DHT22;67620;51.134;6.548;2024-03-07T03:12:09;3.60;76.90
78345;DHT22;67620;51.134;6.548;2024-03-07T03:14:35;3.60;77.40
78345;DHT22;67620;51.134;6.548;2024-03-07T03:17:01;3.60;76.90
78345;DHT22;67620;51.134;6.548;2024-03-07T03:19:26;3.50;76.80
78345;DHT22;67620;51.134;6.548;2024-03-07T03:21:52;3.30;77.50
78345;DHT22;67620;51.134;6.548;2024-03-07T03:24:18;3.40;77.80
78345;DHT22;67620;51.134;6.548;2024-03-07T03:26:44;3.40;78.00
78345;DHT22;67620;51.134;6.548;2024-03-07T03:29:09;3.40;77.80
78345;DHT22;67620;51.134;6.548;2024-03-07T03:31:37;3.40;77.30
78345;DHT22;67620;51.134;6.548;2024-03-07T03:34:02;3.40;76.80
78345;DHT22;67620;51.134;6.548;2024-03-07T03:36:28;3.40;76.80
78345;DHT22;67620;51.134;6.548;2024-03-07T03:38:55;3.40;78.00
78345;DHT22;67620;51.134;6.548;2024-03-07T03:41:20;3.40;77.50
78345;DHT22;67620;51.134;6.548;2024-03-07T03:43:46;3.20;76.90
78345;DHT22;67620;51.134;6.548;2024-03-07T03:46:13;3.20;77.20
78345;DHT22;67620;51.134;6.548;2024-03-07T03:48:42;3.10;77.20
78345;DHT22;67620;51.134;6.548;2024-03-07T03:51:08;3.20;76.70
78345;DHT22;67620;51.134;6.548;2024-03-07T03:53:34;3.20;76.50
78345;DHT22;67620;51.134;6.548;2024-03-07T03:56:00;3.20;76.80
78345;DHT22;67620;51.134;6.548;2024-03-07T03:58:25;3.10;77.40
78345;DHT22;67620;51.134;6.548;2024-03-07T04:00:51;3.10;77.80
78345;DHT22;67620;51.134;6.548;2024-03-07T04:03:17;3.20;78.10
78345;DHT22;67620;51.134;6.548;2024-03-07T04:05:43;3.20;78.00
78345;DHT22;67620;51.134;6.548;2024-03-07T04:08:08;3.20;78.30
78345;DHT22;67620;51.134;6.548;2024-03-07T04:10:35;3.20;79.10
78345;DHT22;67620;51.134;6.548;2024-03-07T04:13:01;3.10;79.00
78345;DHT22;67620;51.134;6.548;2024-03-07T04:15:26;3.20;78.60
78345;DHT22;67620;51.134;6.548;2024-03-07T04:17:52;3.10;78.90
78345;DHT22;67620;51.134;6.548;2024-03-07T04:20:18;3.10;78.20
78345;DHT22;67620;51.134;6.548;2024-03-07T04:22:44;3.20;77.70
78345;DHT22;67620;51.134;6.548;2024-03-07T04:25:09;3.10;78.60
78345;DHT22;67620;51.134;6.548;2024-03-07T04:27:35;3.10;78.70
78345;DHT22;67620;51.134;6.548;2024-03-07T04:30:06;3.10;78.70
78345;DHT22;67620;51.134;6.548;2024-03-07T04:32:32;3.10;78.60
78345;DHT22;67620;51.134;6.548;2024-03-07T04:34:59;3.10;78.50
78345;DHT22;67620;51.134;6.548;2024-03-07T04:37:26;3.10;78.40
78345;DHT22;67620;51.134;6.548;2024-03-07T04:39:54;3.00;79.40
78345;DHT22;67620;51.134;6.548;2024-03-07T04:42:21;3.00;78.80
78345;DHT22;67620;51.134;6.548;2024-03-07T04:44:46;3.00;78.30
78345;DHT22;67620;51.134;6.548;2024-03-07T04:47:12;3.00;78.10
78345;DHT22;67620;51.134;6.548;2024-03-07T04:49:37;2.90;78.20
78345;DHT22;67620;51.134;6.548;2024-03-07T04:52:03;2.90;78.30
78345;DHT22;67620;51.134;6.548;2024-03-07T04:54:30;2.90;78.20
78345;DHT22;67620;51.134;6.548;2024-03-07T04:56:57;2.90;78.30
78345;DHT22;67620;51.134;6.548;2024-03-07T04:59:23;2.80;78.70
78345;DHT22;67620;51.134;6.548;2024-03-07T05:01:49;2.70;80.00
78345;DHT22;67620;51.134;6.548;2024-03-07T05:04:16;2.90;80.50
78345;DHT22;67620;51.134;6.548;2024-03-07T05:06:42;2.90;79.10
78345;DHT22;67620;51.134;6.548;2024-03-07T05:09:09;2.90;79.60
78345;DHT22;67620;51.134;6.548;2024-03-07T05:11:36;2.90;79.20
78345;DHT22;67620;51.134;6.548;2024-03-07T05:14:02;2.90;79.30
78345;DHT22;67620;51.134;6.548;2024-03-07T05:16:30;2.90;79.90
78345;DHT22;67620;51.134;6.548;2024-03-07T05:18:56;2.90;79.90
78345;DHT22;67620;51.134;6.548;2024-03-07T05:21:26;3.00;79.90
78345;DHT22;67620;51.134;6.548;2024-03-07T05:24:03;3.10;80.00
78345;DHT22;67620;51.134;6.548;2024-03-07T05:26:29;3.20;80.20
78345;DHT22;67620;51.134;6.548;2024-03-07T05:29:07;3.20;80.30
78345;DHT22;67620;51.134;6.548;2024-03-07T05:31:40;3.20;81.40
78345;DHT22;67620;51.134;6.548;2024-03-07T05:34:15;3.20;80.80
78345;DHT22;67620;51.134;6.548;2024-03-07T05:36:44;3.10;80.20
78345;DHT22;67620;51.134;6.548;2024-03-07T05:39:15;3.00;80.30
78345;DHT22;67620;51.134;6.548;2024-03-07T05:41:42;3.00;80.20
78345;DHT22;67620;51.134;6.548;2024-03-07T05:44:10;3.00;80.40
78345;DHT22;67620;51.134;6.548;2024-03-07T05:46:40;3.00;80.00
78345;DHT22;67620;51.134;6.548;2024-03-07T05:49:13;3.00;79.50
78345;DHT22;67620;51.134;6.548;2024-03-07T05:51:40;3.00;79.40
78345;DHT22;67620;51.134;6.548;2024-03-07T05:54:07;3.00;78.30
78345;DHT22;67620;51.134;6.548;2024-03-07T05:56:34;3.00;78.60
78345;DHT22;67620;51.134;6.548;2024-03-07T05:59:03;3.00;78.40
78345;DHT22;67620;51.134;6.548;2024-03-07T06:01:33;2.90;78.50
78345;DHT22;67620;51.134;6.548;2024-03-07T06:04:04;2.90;78.40
78345;DHT22;67620;51.134;6.548;2024-03-07T06:06:33;2.70;79.30
78345;DHT22;67620;51.134;6.548;2024-03-07T06:09:03;2.70;80.10
78345;DHT22;67620;51.134;6.548;2024-03-07T06:11:37;2.70;80.40
78345;DHT22;67620;51.134;6.548;2024-03-07T06:14:04;2.70;80.70
78345;DHT22;67620;51.134;6.548;2024-03-07T06:16:35;2.60;81.80
78345;DHT22;67620;51.134;6.548;2024-03-07T06:19:01;2.50;82.30
78345;DHT22;67620;51.134;6.548;2024-03-07T06:21:28;2.40;82.30
78345;DHT22;67620;51.134;6.548;2024-03-07T06:23:54;2.40;82.90
78345;DHT22;67620;51.134;6.548;2024-03-07T06:26:34;2.30;82.70
78345;DHT22;67620;51.134;6.548;2024-03-07T06:29:06;2.50;81.90
78345;DHT22;67620;51.134;6.548;2024-03-07T06:31:33;2.40;81.80
78345;DHT22;67620;51.134;6.548;2024-03-07T06:34:00;2.60;81.10
78345;DHT22;67620;51.134;6.548;2024-03-07T06:36:25;2.60;81.70
78345;DHT22;67620;51.134;6.548;2024-03-07T06:38:51;2.80;80.90
78345;DHT22;67620;51.134;6.548;2024-03-07T06:41:17;2.90;80.70
78345;DHT22;67620;51.134;6.548;2024-03-07T06:43:45;2.80;81.50
78345;DHT22;67620;51.134;6.548;2024-03-07T06:46:11;2.90;81.60
78345;DHT22;67620;51.134;6.548;2024-03-07T06:48:38;3.00;80.60
78345;DHT22;67620;51.134;6.548;2024-03-07T06:51:05;3.10;81.70
78345;DHT22;67620;51.134;6.548;2024-03-07T06:53:31;3.00;80.80
78345;DHT22;67620;51.134;6.548;2024-03-07T06:55:57;3.00;80.80
78345;DHT22;67620;51.134;6.548;2024-03-07T06:58:23;3.10;81.10
78345;DHT22;67620;51.134;6.548;2024-03-07T07:00:49;3.20;81.10
78345;DHT22;67620;51.134;6.548;2024-03-07T07:03:17;3.20;81.70
78345;DHT22;67620;51.134;6.548;2024-03-07T07:05:45;3.30;81.60
78345;DHT22;67620;51.134;6.548;2024-03-07T07:08:10;3.40;81.70
78345;DHT22;67620;51.134;6.548;2024-03-07T07:10:38;3.30;81.40
78345;DHT22;67620;51.134;6.548;2024-03-07T07:13:08;3.40;81.20
78345;DHT22;67620;51.134;6.548;2024-03-07T07:15:34;3.40;81.20
78345;DHT22;67620;51.134;6.548;2024-03-07T07:18:02;3.60;81.30
78345;DHT22;67620;51.134;6.548;2024-03-07T07:20:28;3.70;80.80
78345;DHT22;67620;51.134;6.548;2024-03-07T07:22:54;3.70;81.00
78345;DHT22;67620;51.134;6.548;2024-03-07T07:25:20;3.70;80.80
78345;DHT22;67620;51.134;6.548;2024-03-07T07:27:48;3.80;80.60
78345;DHT22;67620;51.134;6.548;2024-03-07T07:30:16;3.80;81.00
78345;DHT22;67620;51.134;6.548;2024-03-07T07:32:43;3.90;81.20
78345;DHT22;67620;51.134;6.548;2024-03-07T07:35:09;4.00;82.10
78345;DHT22;67620;51.134;6.548;2024-03-07T07:40:04;4.20;81.40
78345;DHT22;67620;51.134;6.548;2024-03-07T07:42:33;4.40;81.50
78345;DHT22;67620;51.134;6.548;2024-03-07T07:44:59;4.60;81.30
78345;DHT22;67620;51.134;6.548;2024-03-07T07:47:24;4.80;82.20
78345;DHT22;67620;51.134;6.548;2024-03-07T07:49:50;5.10;81.40
78345;DHT22;67620;51.134;6.548;2024-03-07T07:52:15;5.20;81.70
78345;DHT22;67620;51.134;6.548;2024-03-07T07:54:42;5.30;81.60
78345;DHT22;67620;51.134;6.548;2024-03-07T07:57:08;5.40;81.80
78345;DHT22;67620;51.134;6.548;2024-03-07T07:59:33;5.50;81.80
78345;DHT22;67620;51.134;6.548;2024-03-07T08:01:58;5.60;81.80
78345;DHT22;67620;51.134;6.548;2024-03-07T08:04:24;5.80;81.70
78345;DHT22;67620;51.134;6.548;2024-03-07T08:06:49;5.90;81.50
78345;DHT22;67620;51.134;6.548;2024-03-07T08:09:17;6.00;81.10
78345;DHT22;67620;51.134;6.548;2024-03-07T08:11:42;6.10;80.90
78345;DHT22;67620;51.134;6.548;2024-03-07T08:14:07;6.20;80.80
78345;DHT22;67620;51.134;6.548;2024-03-07T08:16:33;6.30;80.20
78345;DHT22;67620;51.134;6.548;2024-03-07T08:18:59;6.50;78.90
78345;DHT22;67620;51.134;6.548;2024-03-07T08:21:24;6.80;77.70
78345;DHT22;67620;51.134;6.548;2024-03-07T08:23:50;7.60;74.80
78345;DHT22;67620;51.134;6.548;2024-03-07T08:26:15;7.20;75.10
78345;DHT22;67620;51.134;6.548;2024-03-07T08:28:41;7.20;76.40
78345;DHT22;67620;51.134;6.548;2024-03-07T08:31:06;7.20;73.90
78345;DHT22;67620;51.134;6.548;2024-03-07T08:33:32;7.30;73.90
78345;DHT22;67620;51.134;6.548;2024-03-07T08:35:58;7.40;73.60
78345;DHT22;67620;51.134;6.548;2024-03-07T08:38:24;8.20;70.50
78345;DHT22;67620;51.134;6.548;2024-03-07T08:40:50;9.10;66.90
78345;DHT22;67620;51.134;6.548;2024-03-07T08:43:15;10.40;63.90
78345;DHT22;67620;51.134;6.548;2024-03-07T08:45:41;11.20;60.20
78345;DHT22;67620;51.134;6.548;2024-03-07T08:48:06;11.70;57.60
78345;DHT22;67620;51.134;6.548;2024-03-07T08:50:35;12.50;55.60
78345;DHT22;67620;51.134;6.548;2024-03-07T08:53:03;13.00;54.90
78345;DHT22;67620;51.134;6.548;2024-03-07T08:55:30;13.60;52.80
78345;DHT22;67620;51.134;6.548;2024-03-07T08:57:56;13.80;50.30
78345;DHT22;67620;51.134;6.548;2024-03-07T09:00:22;14.10;50.60
78345;DHT22;67620;51.134;6.548;2024-03-07T09:05:18;14.50;47.70
78345;DHT22;67620;51.134;6.548;2024-03-07T09:07:45;14.80;47.70
78345;DHT22;67620;51.134;6.548;2024-03-07T09:10:15;15.30;48.00
78345;DHT22;67620;51.134;6.548;2024-03-07T09:12:41;15.20;45.70
78345;DHT22;67620;51.134;6.548;2024-03-07T09:15:07;15.20;46.40
78345;DHT22;67620;51.134;6.548;2024-03-07T09:17:32;15.20;45.20
78345;DHT22;67620;51.134;6.548;2024-03-07T09:19:58;15.60;44.80
78345;DHT22;67620;51.134;6.548;2024-03-07T09:22:24;16.10;43.70
78345;DHT22;67620;51.134;6.548;2024-03-07T09:24:50;16.40;42.10
78345;DHT22;67620;51.134;6.548;2024-03-07T09:27:15;16.90;41.70
78345;DHT22;67620;51.134;6.548;2024-03-07T09:29:45;17.60;41.20
78345;DHT22;67620;51.134;6.548;2024-03-07T09:32:12;18.30;38.90
78345;DHT22;67620;51.134;6.548;2024-03-07T09:34:38;18.70;37.90
78345;DHT22;67620;51.134;6.548;2024-03-07T09:37:03;19.10;37.00
78345;DHT22;67620;51.134;6.548;2024-03-07T09:39:29;19.20;37.30
78345;DHT22;67620;51.134;6.548;2024-03-07T09:41:57;18.70;37.20
78345;DHT22;67620;51.134;6.548;2024-03-07T09:44:23;18.50;37.30
78345;DHT22;67620;51.134;6.548;2024-03-07T09:46:52;19.40;36.80
78345;DHT22;67620;51.134;6.548;2024-03-07T09:49:18;19.00;37.10
78345;DHT22;67620;51.134;6.548;2024-03-07T09:51:45;19.30;36.10
78345;DHT22;67620;51.134;6.548;2024-03-07T09:54:11;19.20;35.90
78345;DHT22;67620;51.134;6.548;2024-03-07T09:56:39;19.60;36.30
78345;DHT22;67620;51.134;6.548;2024-03-07T09:59:05;20.00;35.80
78345;DHT22;67620;51.134;6.548;2024-03-07T10:01:35;19.70;35.90
78345;DHT22;67620;51.134;6.548;2024-03-07T10:04:01;17.60;37.80
78345;DHT22;67620;51.134;6.548;2024-03-07T10:06:35;18.30;38.20
78345;DHT22;67620;51.134;6.548;2024-03-07T10:09:01;16.90;39.30
78345;DHT22;67620;51.134;6.548;2024-03-07T10:11:29;15.30;42.30
78345;DHT22;67620;51.134;6.548;2024-03-07T10:13:54;13.70;45.60
78345;DHT22;67620;51.134;6.548;2024-03-07T10:16:20;13.40;48.10
78345;DHT22;67620;51.134;6.548;2024-03-07T10:18:46;12.50;48.40
78345;DHT22;67620;51.134;6.548;2024-03-07T10:21:15;11.70;50.10
78345;DHT22;67620;51.134;6.548;2024-03-07T10:23:43;11.20;50.90
78345;DHT22;67620;51.134;6.548;2024-03-07T10:26:10;10.90;52.00
78345;DHT22;67620;51.134;6.548;2024-03-07T10:28:37;10.50;54.60
78345;DHT22;67620;51.134;6.548;2024-03-07T10:31:04;10.40;54.60
78345;DHT22;67620;51.134;6.548;2024-03-07T10:33:34;10.10;54.60
78345;DHT22;67620;51.134;6.548;2024-03-07T10:36:00;10.20;55.00
78345;DHT22;67620;51.134;6.548;2024-03-07T10:38:25;11.40;54.40
78345;DHT22;67620;51.134;6.548;2024-03-07T10:40:54;11.40;52.10
78345;DHT22;67620;51.134;6.548;2024-03-07T10:43:21;11.40;51.70
78345;DHT22;67620;51.134;6.548;2024-03-07T10:45:47;13.10;49.40
78345;DHT22;67620;51.134;6.548;2024-03-07T10:48:13;12.60;49.50
78345;DHT22;67620;51.134;6.548;2024-03-07T10:50:43;14.30;45.00
78345;DHT22;67620;51.134;6.548;2024-03-07T10:53:19;11.80;48.40
78345;DHT22;67620;51.134;6.548;2024-03-07T11:00:54;15.50;43.90
78345;DHT22;67620;51.134;6.548;2024-03-07T11:03:22;17.30;40.20
78345;DHT22;67620;51.134;6.548;2024-03-07T11:05:47;17.80;40.00
78345;DHT22;67620;51.134;6.548;2024-03-07T11:08:14;16.00;41.50
78345;DHT22;67620;51.134;6.548;2024-03-07T11:10:40;14.40;45.20
78345;DHT22;67620;51.134;6.548;2024-03-07T11:13:09;13.50;47.70
78345;DHT22;67620;51.134;6.548;2024-03-07T11:15:36;13.10;50.10
78345;DHT22;67620;51.134;6.548;2024-03-07T11:18:03;13.10;48.50
78345;DHT22;67620;51.134;6.548;2024-03-07T11:20:39;12.90;50.70
78345;DHT22;67620;51.134;6.548;2024-03-07T11:23:24;12.90;50.10
78345;DHT22;67620;51.134;6.548;2024-03-07T11:26:14;12.60;49.80
78345;DHT22;67620;51.134;6.548;2024-03-07T11:28:43;12.70;51.20
78345;DHT22;67620;51.134;6.548;2024-03-07T11:31:15;12.60;50.30
78345;DHT22;67620;51.134;6.548;2024-03-07T11:34:12;12.40;53.10
78345;DHT22;67620;51.134;6.548;2024-03-07T11:36:44;12.50;51.20
78345;DHT22;67620;51.134;6.548;2024-03-07T11:39:44;12.30;50.80
78345;DHT22;67620;51.134;6.548;2024-03-07T11:44:47;11.90;51.90
78345;DHT22;67620;51.134;6.548;2024-03-07T11:47:13;12.00;51.20
78345;DHT22;67620;51.134;6.548;2024-03-07T11:49:38;11.70;52.60
78345;DHT22;67620;51.134;6.548;2024-03-07T11:52:04;11.40;52.40
78345;DHT22;67620;51.134;6.548;2024-03-07T11:54:37;11.40;53.80
78345;DHT22;67620;51.134;6.548;2024-03-07T11:57:06;11.40;53.70
78345;DHT22;67620;51.134;6.548;2024-03-07T11:59:44;11.50;53.20
78345;DHT22;67620;51.134;6.548;2024-03-07T12:02:17;11.50;53.50
78345;DHT22;67620;51.134;6.548;2024-03-07T12:04:49;11.70;53.50
78345;DHT22;67620;51.134;6.548;2024-03-07T12:07:15;11.70;52.80
78345;DHT22;67620;51.134;6.548;2024-03-07T12:09:42;11.50;52.60
78345;DHT22;67620;51.134;6.548;2024-03-07T12:12:10;11.60;53.30
78345;DHT22;67620;51.134;6.548;2024-03-07T12:14:37;11.80;53.90
78345;DHT22;67620;51.134;6.548;2024-03-07T12:17:04;11.80;53.20
78345;DHT22;67620;51.134;6.548;2024-03-07T12:19:31;11.80;54.20
78345;DHT22;67620;51.134;6.548;2024-03-07T12:21:59;11.80;52.60
78345;DHT22;67620;51.134;6.548;2024-03-07T12:24:25;12.00;54.00
78345;DHT22;67620;51.134;6.548;2024-03-07T12:26:51;12.00;54.00
78345;DHT22;67620;51.134;6.548;2024-03-07T12:29:16;12.10;53.30
78345;DHT22;67620;51.134;6.548;2024-03-07T12:31:42;11.80;54.50
78345;DHT22;67620;51.134;6.548;2024-03-07T12:34:08;11.80;54.00
78345;DHT22;67620;51.134;6.548;2024-03-07T12:36:35;11.90;56.00
78345;DHT22;67620;51.134;6.548;2024-03-07T12:39:26;12.20;55.80
78345;DHT22;67620;51.134;6.548;2024-03-07T12:41:52;12.20;54.00
78345;DHT22;67620;51.134;6.548;2024-03-07T12:44:18;12.20;54.10
78345;DHT22;67620;51.134;6.548;2024-03-07T12:46:47;11.90;53.90
78345;DHT22;67620;51.134;6.548;2024-03-07T12:49:14;11.90;53.30
78345;DHT22;67620;51.134;6.548;2024-03-07T12:51:43;11.70;53.40
78345;DHT22;67620;51.134;6.548;2024-03-07T12:54:09;11.60;54.40
78345;DHT22;67620;51.134;6.548;2024-03-07T12:56:35;11.40;55.40
78345;DHT22;67620;51.134;6.548;2024-03-07T12:59:05;11.60;54.30
78345;DHT22;67620;51.134;6.548;2024-03-07T13:01:37;11.40;54.40
78345;DHT22;67620;51.134;6.548;2024-03-07T13:04:13;11.20;54.30
78345;DHT22;67620;51.134;6.548;2024-03-07T13:06:39;11.20;54.30
78345;DHT22;67620;51.134;6.548;2024-03-07T13:09:11;11.40;56.20
78345;DHT22;67620;51.134;6.548;2024-03-07T13:11:40;11.70;54.50
78345;DHT22;67620;51.134;6.548;2024-03-07T13:14:12;12.00;55.00
78345;DHT22;67620;51.134;6.548;2024-03-07T13:16:39;12.10;54.50
78345;DHT22;67620;51.134;6.548;2024-03-07T13:19:04;11.80;53.50
78345;DHT22;67620;51.134;6.548;2024-03-07T13:21:30;11.60;55.60
78345;DHT22;67620;51.134;6.548;2024-03-07T13:23:57;11.30;55.20
78345;DHT22;67620;51.134;6.548;2024-03-07T13:26:23;11.20;55.50
78345;DHT22;67620;51.134;6.548;2024-03-07T13:28:51;11.00;55.30
78345;DHT22;67620;51.134;6.548;2024-03-07T13:31:17;10.90;55.20
78345;DHT22;67620;51.134;6.548;2024-03-07T13:33:43;10.80;55.50
78345;DHT22;67620;51.134;6.548;2024-03-07T13:36:09;10.80;56.30
78345;DHT22;67620;51.134;6.548;2024-03-07T13:38:35;10.80;56.20
78345;DHT22;67620;51.134;6.548;2024-03-07T13:41:00;10.80;56.50
78345;DHT22;67620;51.134;6.548;2024-03-07T13:43:29;10.80;56.70
78345;DHT22;67620;51.134;6.548;2024-03-07T13:45:54;10.70;56.60
78345;DHT22;67620;51.134;6.548;2024-03-07T13:48:22;10.60;56.30
78345;DHT22;67620;51.134;6.548;2024-03-07T13:50:47;10.50;56.50
78345;DHT22;67620;51.134;6.548;2024-03-07T13:53:18;10.50;56.70
78345;DHT22;67620;51.134;6.548;2024-03-07T13:58:15;10.60;56.60
78345;DHT22;67620;51.134;6.548;2024-03-07T14:00:54;10.60;56.90
78345;DHT22;67620;51.134;6.548;2024-03-07T14:27:26;10.60;56.80
78345;DHT22;67620;51.134;6.548;2024-03-07T14:32:37;10.60;57.30
78345;DHT22;67620;51.134;6.548;2024-03-07T14:37:55;10.60;56.90
78345;DHT22;67620;51.134;6.548;2024-03-07T14:40:28;10.50;57.70
78345;DHT22;67620;51.134;6.548;2024-03-07T14:42:54;10.40;58.20
78345;DHT22;67620;51.134;6.548;2024-03-07T14:45:26;10.40;57.80
78345;DHT22;67620;51.134;6.548;2024-03-07T14:47:53;10.40;58.10
78345;DHT22;67620;51.134;6.548;2024-03-07T14:50:19;10.40;57.40
78345;DHT22;67620;51.134;6.548;2024-03-07T14:52:46;10.30;56.10
78345;DHT22;67620;51.134;6.548;2024-03-07T14:55:11;10.20;55.40
78345;DHT22;67620;51.134;6.548;2024-03-07T14:57:40;10.20;57.40
78345;DHT22;67620;51.134;6.548;2024-03-07T15:00:09;10.20;57.70
78345;DHT22;67620;51.134;6.548;2024-03-07T15:02:47;10.20;58.40
78345;DHT22;67620;51.134;6.548;2024-03-07T15:05:14;10.20;58.00
78345;DHT22;67620;51.134;6.548;2024-03-07T15:07:39;10.10;57.70
78345;DHT22;67620;51.134;6.548;2024-03-07T15:10:06;10.10;57.90
78345;DHT22;67620;51.134;6.548;2024-03-07T15:12:34;10.10;57.70
78345;DHT22;67620;51.134;6.548;2024-03-07T15:14:59;10.10;58.50
78345;DHT22;67620;51.134;6.548;2024-03-07T15:17:24;10.00;58.30
78345;DHT22;67620;51.134;6.548;2024-03-07T15:19:50;10.00;57.90
78345;DHT22;67620;51.134;6.548;2024-03-07T15:22:15;10.00;57.00
78345;DHT22;67620;51.134;6.548;2024-03-07T15:24:45;9.90;58.00
78345;DHT22;67620;51.134;6.548;2024-03-07T15:27:11;9.90;57.10
78345;DHT22;67620;51.134;6.548;2024-03-07T15:29:36;9.90;57.80
78345;DHT22;67620;51.134;6.548;2024-03-07T15:32:02;9.90;59.40
78345;DHT22;67620;51.134;6.548;2024-03-07T15:34:28;9.90;58.70
78345;DHT22;67620;51.134;6.548;2024-03-07T15:37:00;9.90;59.10
78345;DHT22;67620;51.134;6.548;2024-03-07T15:39:28;9.80;57.70
78345;DHT22;67620;51.134;6.548;2024-03-07T15:41:55;9.70;58.80
78345;DHT22;67620;51.134;6.548;2024-03-07T15:44:21;9.80;58.80
78345;DHT22;67620;51.134;6.548;2024-03-07T15:46:46;9.80;58.30
78345;DHT22;67620;51.134;6.548;2024-03-07T15:49:12;9.70;58.60
78345;DHT22;67620;51.134;6.548;2024-03-07T15:51:38;9.60;59.50
78345;DHT22;67620;51.134;6.548;2024-03-07T15:54:04;9.70;59.30
78345;DHT22;67620;51.134;6.548;2024-03-07T15:56:30;9.80;58.40
78345;DHT22;67620;51.134;6.548;2024-03-07T15:58:56;9.80;58.20
78345;DHT22;67620;51.134;6.548;2024-03-07T16:01:22;9.80;58.60
78345;DHT22;67620;51.134;6.548;2024-03-07T16:03:47;9.60;58.40
78345;DHT22;67620;51.134;6.548;2024-03-07T16:06:13;9.70;58.10
78345;DHT22;67620;51.134;6.548;2024-03-07T16:08:41;9.60;57.40
78345;DHT22;67620;51.134;6.548;2024-03-07T16:11:08;9.50;57.70
78345;DHT22;67620;51.134;6.548;2024-03-07T16:13:34;9.40;57.80
78345;DHT22;67620;51.134;6.548;2024-03-07T16:16:00;9.40;57.90
78345;DHT22;67620;51.134;6.548;2024-03-07T16:18:30;9.30;57.40
78345;DHT22;67620;51.134;6.548;2024-03-07T16:20:55;9.30;57.50
78345;DHT22;67620;51.134;6.548;2024-03-07T16:23:23;9.10;57.30
78345;DHT22;67620;51.134;6.548;2024-03-07T16:25:48;9.10;57.30